createdAt,value
2018-06-12T00:01:28.806Z,19.43
2018-06-12T00:03:58.297Z,18.87
2018-06-12T00:06:27.866Z,19.80
2018-06-12T00:08:57.354Z,22.90
2018-06-12T00:11:26.860Z,19.63
2018-06-12T00:13:56.385Z,17.67
2018-06-12T00:16:25.885Z,15.30
2018-06-12T00:18:55.372Z,19.00
2018-06-12T00:21:24.847Z,19.23
2018-06-12T00:23:54.311Z,19.17
2018-06-12T00:26:23.797Z,23.80
2018-06-12T00:28:53.277Z,22.40
2018-06-12T00:31:22.747Z,17.63
2018-06-12T00:33:52.284Z,25.23
2018-06-12T00:36:21.769Z,27.00
2018-06-12T00:38:51.240Z,24.50
2018-06-12T00:41:20.720Z,25.20
2018-06-12T00:43:50.211Z,21.80
2018-06-12T00:46:19.702Z,19.37
2018-06-12T00:48:49.164Z,22.60
2018-06-12T00:51:18.655Z,21.27
2018-06-12T00:53:48.132Z,21.90
2018-06-12T00:56:28.387Z,22.50
2018-06-12T00:58:57.888Z,22.20
2018-06-12T01:01:27.360Z,20.23
2018-06-12T01:03:56.994Z,20.17
2018-06-12T01:06:26.477Z,29.10
2018-06-12T01:08:55.942Z,18.60
2018-06-12T01:11:25.437Z,20.40
2018-06-12T01:13:54.936Z,18.70
2018-06-12T01:16:24.439Z,18.57
2018-06-12T01:18:54.922Z,19.03
2018-06-12T01:21:24.411Z,32.93
2018-06-12T01:23:53.875Z,20.43
2018-06-12T01:26:23.355Z,21.77
2018-06-12T01:28:52.831Z,20.33
2018-06-12T01:31:22.302Z,21.63
2018-06-12T01:33:51.828Z,18.47
2018-06-12T01:36:21.419Z,18.47
2018-06-12T01:38:50.954Z,22.70
2018-06-12T01:41:20.428Z,22.07
2018-06-12T01:43:49.963Z,21.10
2018-06-12T01:46:19.485Z,21.10
2018-06-12T01:48:48.965Z,19.47
2018-06-12T01:51:18.467Z,20.03
2018-06-12T01:53:47.934Z,26.57
2018-06-12T01:56:17.401Z,20.57
2018-06-12T01:58:46.873Z,22.63
2018-06-12T02:01:16.365Z,28.13
2018-06-12T02:03:50.289Z,19.97
2018-06-12T02:06:22.336Z,17.77
2018-06-12T02:08:58.279Z,18.80
2018-06-12T02:11:34.090Z,26.53
2018-06-12T02:14:10.684Z,22.20
2018-06-12T02:16:46.955Z,32.20
2018-06-12T02:19:24.835Z,21.50
2018-06-12T02:22:01.019Z,26.37
2018-06-12T02:24:39.667Z,19.13
2018-06-12T02:27:13.105Z,21.00
2018-06-12T02:29:48.922Z,29.40
2018-06-12T02:32:23.705Z,20.97
2018-06-12T02:34:57.846Z,19.97
2018-06-12T02:37:31.852Z,20.20
2018-06-12T02:40:08.930Z,18.37
2018-06-12T02:42:45.560Z,23.03
2018-06-12T02:45:21.171Z,20.20
2018-06-12T02:47:57.424Z,19.13
2018-06-12T02:50:33.197Z,24.37
2018-06-12T02:53:07.996Z,17.07
2018-06-12T02:55:45.003Z,27.90
2018-06-12T02:58:20.652Z,19.47
2018-06-12T03:00:53.660Z,24.23
2018-06-12T03:03:31.814Z,22.20
2018-06-12T03:06:09.195Z,20.13
2018-06-12T03:08:45.409Z,22.10
2018-06-12T03:11:21.730Z,18.00
2018-06-12T03:13:58.355Z,20.00
2018-06-12T03:16:28.122Z,22.97
2018-06-12T03:18:57.596Z,18.30
2018-06-12T03:21:27.060Z,19.90
2018-06-12T03:23:56.526Z,21.23
2018-06-12T03:26:25.986Z,19.10
2018-06-12T03:28:55.465Z,19.70
2018-06-12T03:31:24.939Z,24.40
2018-06-12T03:33:54.476Z,18.17
2018-06-12T03:36:24.240Z,21.13
2018-06-12T03:38:59.249Z,17.93
2018-06-12T03:41:32.111Z,18.53
2018-06-12T03:44:06.311Z,19.17
2018-06-12T03:46:36.047Z,21.20
2018-06-12T03:49:05.651Z,20.70
2018-06-12T03:51:35.181Z,16.43
2018-06-12T03:54:04.711Z,17.33
2018-06-12T03:56:34.230Z,17.03
2018-06-12T03:59:03.752Z,19.90
2018-06-12T04:01:33.297Z,18.53
2018-06-12T04:04:02.800Z,19.87
2018-06-12T04:06:37.152Z,19.83
2018-06-12T04:09:13.073Z,21.00
2018-06-12T04:11:42.604Z,18.73
2018-06-12T04:14:12.079Z,23.20
2018-06-12T04:16:41.575Z,20.10
2018-06-12T04:19:11.121Z,16.23
2018-06-12T04:21:40.596Z,17.50
2018-06-12T04:24:10.837Z,24.90
2018-06-12T04:26:40.807Z,18.27
2018-06-12T04:29:10.273Z,16.47
2018-06-12T04:31:39.742Z,16.60
2018-06-12T04:34:09.412Z,17.23
2018-06-12T04:36:38.909Z,17.43
2018-06-12T04:39:08.423Z,17.23
2018-06-12T04:41:37.902Z,18.27
2018-06-12T04:44:07.371Z,15.63
2018-06-12T04:46:36.853Z,17.70
2018-06-12T04:49:06.344Z,15.57
2018-06-12T04:51:35.819Z,18.10
2018-06-12T04:54:05.310Z,18.27
2018-06-12T04:56:34.790Z,17.60
2018-06-12T04:59:04.317Z,17.97
2018-06-12T05:01:33.787Z,19.10
2018-06-12T05:04:03.340Z,20.23
2018-06-12T05:06:32.833Z,21.40
2018-06-12T05:09:02.313Z,18.93
2018-06-12T05:11:31.809Z,21.53
2018-06-12T05:14:01.288Z,19.07
2018-06-12T05:16:30.785Z,20.03
2018-06-12T05:19:00.525Z,18.07
2018-06-12T05:21:29.996Z,22.70
2018-06-12T05:23:59.488Z,18.93
2018-06-12T05:26:28.961Z,18.80
2018-06-12T05:28:58.448Z,18.83
2018-06-12T05:31:27.957Z,21.90
2018-06-12T05:33:57.562Z,18.07
2018-06-12T05:36:27.068Z,17.93
2018-06-12T05:38:56.569Z,18.50
2018-06-12T05:41:26.208Z,21.77
2018-06-12T05:43:55.676Z,17.33
2018-06-12T05:46:25.166Z,19.30
2018-06-12T05:48:54.654Z,18.60
2018-06-12T05:51:24.133Z,22.50
2018-06-12T05:53:53.617Z,19.70
2018-06-12T05:56:23.181Z,20.67
2018-06-12T05:58:52.655Z,21.53
2018-06-12T06:01:22.157Z,20.00
2018-06-12T06:03:51.668Z,20.60
2018-06-12T06:06:21.144Z,19.87
2018-06-12T06:08:50.589Z,20.20
2018-06-12T06:11:20.063Z,25.53
2018-06-12T06:13:49.524Z,18.80
2018-06-12T06:16:18.983Z,19.20
2018-06-12T06:18:48.439Z,19.10
2018-06-12T06:21:17.900Z,19.90
2018-06-12T06:23:47.472Z,22.10
2018-06-12T06:26:16.928Z,19.60
2018-06-12T06:28:46.388Z,18.33
2018-06-12T06:31:15.851Z,20.00
2018-06-12T06:33:45.374Z,19.57
2018-06-12T06:36:14.852Z,23.67
2018-06-12T06:38:44.389Z,20.63
2018-06-12T06:41:13.853Z,18.17
2018-06-12T06:43:43.332Z,23.83
2018-06-12T06:46:12.796Z,19.47
2018-06-12T06:48:42.260Z,20.20
2018-06-12T06:51:11.716Z,20.33
2018-06-12T06:53:41.221Z,25.20
2018-06-12T06:56:10.726Z,17.03
2018-06-12T06:58:40.180Z,19.20
2018-06-12T07:40:40.360Z,17.87
2018-06-12T07:43:09.817Z,18.37
2018-06-12T07:45:39.287Z,18.63
2018-06-12T07:48:08.749Z,19.60
2018-06-12T07:50:38.212Z,17.43
2018-06-12T07:53:07.775Z,18.10
2018-06-12T07:55:37.254Z,18.40
2018-06-12T07:58:06.718Z,16.80
2018-06-12T08:00:36.197Z,16.70
2018-06-12T08:03:06.890Z,19.00
2018-06-12T08:05:37.265Z,17.67
2018-06-12T08:08:06.310Z,15.60
2018-06-12T08:10:36.643Z,16.50
2018-06-12T08:13:06.194Z,16.80
2018-06-12T08:15:35.710Z,16.70
2018-06-12T08:18:07.518Z,16.83
2018-06-12T08:20:36.991Z,17.77
2018-06-12T08:23:06.568Z,16.57
2018-06-12T08:25:36.057Z,14.63
2018-06-12T08:28:05.589Z,14.57
2018-06-12T08:30:35.060Z,16.23
2018-06-12T08:33:04.682Z,15.13
2018-06-12T08:35:34.171Z,18.43
2018-06-12T08:38:03.679Z,14.53
2018-06-12T08:40:33.169Z,15.77
2018-06-12T08:43:04.590Z,15.90
2018-06-12T08:45:34.425Z,16.23
2018-06-12T08:48:03.873Z,14.70
2018-06-12T08:50:33.322Z,14.07
2018-06-12T08:53:03.029Z,13.60
2018-06-12T08:55:32.553Z,14.33
2018-06-12T08:58:03.619Z,16.03
2018-06-12T09:00:35.319Z,18.00
2018-06-12T09:03:06.463Z,14.90
2018-06-12T09:05:36.003Z,14.70
2018-06-12T09:08:05.608Z,17.80
2018-06-12T09:10:35.055Z,15.20
2018-06-12T09:13:04.543Z,15.20
2018-06-12T09:15:35.723Z,12.40
2018-06-12T09:18:05.255Z,12.83
2018-06-12T09:20:36.561Z,14.90
2018-06-12T09:23:06.056Z,13.60
2018-06-12T09:25:39.407Z,11.77
2018-06-12T09:28:10.592Z,13.40
2018-06-12T09:30:40.292Z,12.07
2018-06-12T09:33:09.953Z,13.37
2018-06-12T09:35:41.071Z,10.60
2018-06-12T09:38:12.393Z,13.33
2018-06-12T09:40:44.278Z,10.70
2018-06-12T09:43:16.775Z,10.87
2018-06-12T09:45:46.478Z,12.13
2018-06-12T09:48:15.931Z,10.87
2018-06-12T09:50:45.574Z,10.70
2018-06-12T09:53:15.041Z,11.17
2018-06-12T09:55:44.496Z,11.40
2018-06-12T09:58:13.940Z,9.90
2018-06-12T10:01:46.377Z,9.30
2018-06-12T10:04:16.421Z,10.33
2018-06-12T10:06:45.891Z,12.00
2018-06-12T10:09:15.364Z,10.73
2018-06-12T10:11:44.856Z,12.50
2018-06-12T10:14:14.409Z,13.43
2018-06-12T10:16:43.916Z,15.37
2018-06-12T10:19:13.365Z,12.83
2018-06-12T10:21:42.816Z,10.40
2018-06-12T10:24:12.255Z,12.57
2018-06-12T10:26:41.879Z,12.27
2018-06-12T10:29:11.340Z,11.20
2018-06-12T10:31:41.575Z,10.20
2018-06-12T10:34:11.085Z,10.00
2018-06-12T10:36:40.613Z,10.23
2018-06-12T10:39:10.071Z,11.10
2018-06-12T10:41:39.665Z,9.60
2018-06-12T10:44:09.158Z,8.90
2018-06-12T10:46:38.636Z,10.63
2018-06-12T10:49:08.177Z,8.13
2018-06-12T10:51:37.697Z,9.57
2018-06-12T10:54:07.283Z,8.83
2018-06-12T10:56:37.772Z,10.23
2018-06-12T10:59:07.243Z,11.20
2018-06-12T11:01:36.771Z,11.60
2018-06-12T11:04:06.409Z,10.53
2018-06-12T11:06:35.917Z,9.47
2018-06-12T11:09:06.523Z,8.80
2018-06-12T11:11:36.009Z,8.83
2018-06-12T11:14:05.460Z,8.03
2018-06-12T11:16:34.916Z,10.00
2018-06-12T11:19:04.370Z,8.10
2018-06-12T11:21:33.836Z,8.27
2018-06-12T11:24:03.292Z,17.80
2018-06-12T11:26:32.731Z,8.70
2018-06-12T11:29:02.711Z,7.97
2018-06-12T11:31:32.167Z,8.07
2018-06-12T11:34:01.756Z,10.20
2018-06-12T11:36:31.383Z,7.87
2018-06-12T11:39:00.843Z,7.17
2018-06-12T11:41:30.292Z,7.03
2018-06-12T11:43:59.737Z,8.53
2018-06-12T11:46:29.185Z,7.87
2018-06-12T11:48:58.617Z,7.13
2018-06-12T11:51:30.841Z,6.47
2018-06-12T11:54:00.290Z,6.70
2018-06-12T11:56:29.733Z,7.13
2018-06-12T11:59:01.364Z,6.23
2018-06-12T12:01:30.812Z,6.80
2018-06-12T12:04:00.607Z,7.37
2018-06-12T12:06:30.117Z,6.67
2018-06-12T12:08:59.606Z,6.23
2018-06-12T12:11:29.059Z,7.00
2018-06-12T12:13:58.488Z,6.17
2018-06-12T12:16:27.928Z,6.60
2018-06-12T12:18:57.382Z,6.87
2018-06-12T12:21:26.810Z,7.13
2018-06-12T12:23:56.316Z,10.57
2018-06-12T12:26:25.780Z,8.20
2018-06-12T12:28:55.290Z,6.90
2018-06-12T12:31:24.731Z,7.53
2018-06-12T12:33:54.236Z,7.90
2018-06-12T12:36:23.696Z,8.87
2018-06-12T12:38:53.138Z,7.27
2018-06-12T12:41:22.741Z,7.23
2018-06-12T12:43:52.192Z,7.37
2018-06-12T12:46:21.632Z,6.77
2018-06-12T12:48:52.117Z,6.10
2018-06-12T12:51:21.564Z,6.20
2018-06-12T12:53:51.040Z,6.60
2018-06-12T12:56:20.488Z,6.97
2018-06-12T12:58:49.957Z,6.47
2018-06-12T13:01:19.396Z,9.63
2018-06-12T13:03:48.847Z,7.20
2018-06-12T13:06:18.330Z,7.03
2018-06-12T13:08:47.796Z,7.57
2018-06-12T13:11:17.393Z,8.43
2018-06-12T13:13:46.849Z,7.40
2018-06-12T13:16:16.295Z,7.17
2018-06-12T13:18:45.759Z,6.73
2018-06-12T13:21:15.213Z,6.27
2018-06-12T13:23:44.664Z,6.70
2018-06-12T13:26:14.674Z,8.70
2018-06-12T13:28:44.228Z,6.47
2018-06-12T13:31:13.727Z,6.17
2018-06-12T13:33:43.271Z,6.33
2018-06-12T13:36:12.920Z,6.40
2018-06-12T13:38:42.362Z,7.10
2018-06-12T13:41:11.825Z,7.60
2018-06-12T13:43:41.312Z,7.73
2018-06-12T13:46:10.741Z,8.90
2018-06-12T13:48:40.175Z,8.77
2018-06-12T13:51:09.619Z,11.97
2018-06-12T13:53:39.051Z,9.90
2018-06-12T13:56:08.505Z,9.10
2018-06-12T13:58:37.952Z,8.60
2018-06-12T14:01:07.478Z,8.97
2018-06-12T14:03:36.936Z,10.50
2018-06-12T14:06:06.627Z,8.93
2018-06-12T14:08:36.067Z,11.80
2018-06-12T14:11:05.504Z,9.30
2018-06-12T14:13:35.315Z,9.90
2018-06-12T14:16:04.909Z,11.40
2018-06-12T14:18:34.396Z,16.47
2018-06-12T14:21:03.843Z,15.53
2018-06-12T14:23:33.295Z,13.33
2018-06-12T14:26:02.746Z,10.63
2018-06-12T14:28:32.225Z,10.47
2018-06-12T14:31:01.705Z,9.87
2018-06-12T14:33:31.211Z,11.03
2018-06-12T14:36:00.646Z,10.30
2018-06-12T14:38:30.097Z,10.77
2018-06-12T14:40:59.541Z,9.80
2018-06-12T14:43:30.079Z,13.63
2018-06-12T14:45:59.538Z,13.10
2018-06-12T14:48:28.982Z,17.83
2018-06-12T14:50:58.432Z,11.43
2018-06-12T14:53:27.969Z,10.90
2018-06-12T14:55:57.423Z,8.27
2018-06-12T14:58:26.881Z,8.90
2018-06-12T15:00:56.357Z,10.30
2018-06-12T15:03:25.799Z,9.27
2018-06-12T15:05:55.245Z,10.40
2018-06-12T15:08:24.702Z,11.63
2018-06-12T15:10:54.176Z,7.20
2018-06-12T15:13:23.657Z,12.50
2018-06-12T15:15:53.097Z,8.30
2018-06-12T15:18:22.555Z,11.03
2018-06-12T15:20:52.040Z,7.87
2018-06-12T15:23:21.766Z,11.77
2018-06-12T15:25:51.314Z,9.33
2018-06-12T15:28:20.849Z,7.83
2018-06-12T15:30:50.301Z,9.53
2018-06-12T15:33:19.819Z,11.17
2018-06-12T15:35:49.286Z,9.97
2018-06-12T15:38:18.792Z,14.30
2018-06-12T15:40:48.241Z,9.70
2018-06-12T15:43:17.691Z,11.87
2018-06-12T15:45:47.159Z,13.70
2018-06-12T15:48:16.601Z,13.63
2018-06-12T15:50:46.077Z,12.37
2018-06-12T15:53:15.536Z,14.70
2018-06-12T15:55:45.050Z,12.50
2018-06-12T15:58:14.607Z,17.17
2018-06-12T16:00:46.498Z,18.67
2018-06-12T16:03:17.626Z,12.50
2018-06-12T16:05:47.657Z,13.77
2018-06-12T16:08:18.763Z,16.27
2018-06-12T16:10:48.572Z,18.07
2018-06-12T16:13:18.156Z,15.70
2018-06-12T16:15:49.678Z,18.20
2018-06-12T16:18:19.192Z,12.03
2018-06-12T16:20:48.732Z,16.40
2018-06-12T16:23:18.256Z,16.83
2018-06-12T16:25:49.671Z,23.83
2018-06-12T16:28:19.337Z,18.57
2018-06-12T16:30:48.793Z,22.83
2018-06-12T16:33:18.336Z,20.93
2018-06-12T16:35:47.811Z,22.63
2018-06-12T16:38:17.270Z,28.73
2018-06-12T16:40:46.733Z,23.97
2018-06-12T16:43:16.184Z,27.37
2018-06-12T16:45:45.907Z,25.70
2018-06-12T16:48:15.386Z,26.37
2018-06-12T16:50:44.868Z,26.60
2018-06-12T16:53:14.460Z,28.67
2018-06-12T16:55:43.938Z,36.10
2018-06-12T16:58:13.412Z,31.43
2018-06-12T17:00:47.312Z,43.70
2018-06-12T17:03:21.702Z,34.13
2018-06-12T17:05:50.693Z,37.50
2018-06-12T17:08:20.799Z,35.10
2018-06-12T17:10:54.312Z,35.30
2018-06-12T17:13:28.950Z,31.90
2018-06-12T17:15:58.457Z,28.03
2018-06-12T17:18:28.148Z,33.63
2018-06-12T17:20:57.651Z,26.40
2018-06-12T17:23:27.108Z,26.53
2018-06-12T17:25:56.643Z,27.70
2018-06-12T17:28:26.176Z,24.80
2018-06-12T17:30:55.704Z,26.53
2018-06-12T17:33:25.412Z,26.17
2018-06-12T17:35:54.892Z,24.30
2018-06-12T17:38:29.971Z,23.97
2018-06-12T17:40:59.660Z,23.37
2018-06-12T17:43:29.119Z,24.70
2018-06-12T17:45:58.774Z,23.80
2018-06-12T17:48:28.287Z,22.70
2018-06-12T17:50:57.753Z,23.80
2018-06-12T17:53:27.281Z,22.60
2018-06-12T17:55:56.743Z,21.90
2018-06-12T17:58:26.203Z,20.33
2018-06-12T18:00:55.663Z,22.47
2018-06-12T18:03:25.244Z,21.67
2018-06-12T18:05:54.692Z,20.30
2018-06-12T18:08:24.154Z,19.47
2018-06-12T18:10:53.605Z,24.07
2018-06-12T18:13:23.057Z,20.90
2018-06-12T18:15:52.529Z,21.13
2018-06-12T18:18:25.188Z,22.90
2018-06-12T18:20:56.864Z,19.40
2018-06-12T18:23:26.397Z,17.80
2018-06-12T18:25:59.605Z,23.60
2018-06-12T18:28:31.821Z,19.43
2018-06-12T18:31:02.939Z,17.80
2018-06-12T18:33:33.820Z,16.93
2018-06-12T18:36:05.733Z,17.00
2018-06-12T18:38:36.643Z,21.83
2018-06-12T18:41:08.696Z,26.47
2018-06-12T18:43:41.805Z,17.80
2018-06-12T18:46:13.197Z,20.70
2018-06-12T18:48:44.227Z,18.43
2018-06-12T18:51:15.391Z,18.33
2018-06-12T18:53:45.973Z,19.10
2018-06-12T18:56:16.861Z,16.67
2018-06-12T18:58:47.532Z,17.13
2018-06-12T19:01:18.342Z,17.63
2018-06-12T19:03:49.316Z,16.30
2018-06-12T19:06:20.469Z,14.60
2018-06-12T19:08:51.064Z,18.23
2018-06-12T19:11:22.439Z,17.67
2018-06-12T19:13:53.391Z,16.17
2018-06-12T19:16:24.819Z,15.97
2018-06-12T19:18:56.731Z,15.67
2018-06-12T19:21:27.629Z,16.37
2018-06-12T19:23:58.574Z,14.37
2018-06-12T19:26:29.755Z,17.10
2018-06-12T19:29:00.676Z,16.43
2018-06-12T19:31:30.777Z,17.60
2018-06-12T19:34:02.076Z,16.00
2018-06-12T19:36:32.440Z,14.20
2018-06-12T19:39:02.700Z,13.77
2018-06-12T19:41:33.515Z,15.20
2018-06-12T19:44:03.916Z,16.23
2018-06-12T19:46:34.384Z,15.73
2018-06-12T19:49:05.018Z,15.73
2018-06-12T19:51:35.145Z,14.63
2018-06-12T19:54:06.313Z,15.67
2018-06-12T19:56:37.369Z,15.00
2018-06-12T19:59:07.778Z,18.00
2018-06-12T20:01:39.366Z,17.50
2018-06-12T20:04:10.076Z,16.90
2018-06-12T20:06:40.434Z,16.53
2018-06-12T20:09:10.340Z,15.80
2018-06-12T20:11:41.213Z,15.60
2018-06-12T20:14:11.613Z,19.47
2018-06-12T20:16:42.589Z,15.10
2018-06-12T20:19:13.653Z,15.43
2018-06-12T20:21:43.457Z,15.87
2018-06-12T20:24:15.866Z,18.23
2018-06-12T20:27:03.664Z,17.43
2018-06-12T20:29:33.113Z,18.13
2018-06-12T20:32:02.579Z,16.90
2018-06-12T20:34:33.126Z,17.37
2018-06-12T20:37:02.750Z,17.50
2018-06-12T20:39:32.265Z,17.30
2018-06-12T20:42:01.825Z,20.17
2018-06-12T20:44:31.401Z,17.90
2018-06-12T20:47:00.861Z,25.83
2018-06-12T20:49:31.683Z,18.03
2018-06-12T20:52:01.239Z,17.03
2018-06-12T20:54:30.713Z,16.83
2018-06-12T20:57:01.839Z,17.37
2018-06-12T20:59:32.766Z,17.53
2018-06-12T21:02:03.471Z,17.53
2018-06-12T21:04:33.226Z,17.13
2018-06-12T21:07:08.827Z,17.97
2018-06-12T21:09:41.650Z,23.13
2018-06-12T21:12:15.703Z,16.50
2018-06-12T21:14:47.952Z,17.50
2018-06-12T21:19:54.803Z,19.47
2018-06-12T21:22:27.227Z,17.53
2018-06-12T21:24:58.630Z,22.57
2018-06-12T21:27:32.357Z,18.33
2018-06-12T21:30:02.073Z,18.37
2018-06-12T21:32:31.729Z,23.80
2018-06-12T21:35:01.364Z,17.60
2018-06-12T21:37:30.901Z,20.47
2018-06-12T21:40:00.596Z,19.60
2018-06-12T21:42:30.096Z,19.83
2018-06-12T21:44:59.860Z,22.37
2018-06-12T21:47:29.482Z,20.53
2018-06-12T21:49:59.043Z,18.70
2018-06-12T21:52:28.548Z,17.57
2018-06-12T21:54:58.013Z,20.90
2018-06-12T21:57:27.568Z,23.37
2018-06-12T21:59:56.549Z,19.20
2018-06-12T22:02:30.733Z,19.60
2018-06-12T22:05:06.156Z,22.00
2018-06-12T22:07:35.362Z,19.60
2018-06-12T22:10:04.885Z,18.57
2018-06-12T22:12:34.494Z,19.03
2018-06-12T22:15:03.997Z,23.10
2018-06-12T22:17:33.460Z,19.25
2018-06-12T22:20:03.127Z,19.03
2018-06-12T22:22:32.603Z,17.57
2018-06-12T22:25:02.068Z,18.62
2018-06-12T22:27:31.533Z,18.77
2018-06-12T22:30:01.033Z,19.43
2018-06-12T22:32:33.881Z,19.92
2018-06-12T22:35:04.603Z,21.95
2018-06-12T22:37:34.074Z,23.02
2018-06-12T22:40:03.696Z,19.35
2018-06-12T22:42:33.589Z,27.50
2018-06-12T22:45:03.175Z,24.87
2018-06-12T22:47:32.649Z,20.92
2018-06-12T22:50:02.305Z,23.47
2018-06-12T22:52:31.763Z,17.85
2018-06-12T22:55:01.237Z,19.80
2018-06-12T22:57:30.888Z,20.52
2018-06-12T23:00:00.374Z,26.00
2018-06-12T23:02:29.870Z,23.30
2018-06-12T23:05:01.724Z,20.00
2018-06-12T23:07:30.699Z,18.32
2018-06-12T23:10:00.350Z,27.17
2018-06-12T23:12:30.025Z,25.83
2018-06-12T23:14:59.490Z,21.35
2018-06-12T23:17:28.957Z,18.67
2018-06-12T23:20:09.225Z,19.77
2018-06-12T23:22:39.365Z,24.27
2018-06-12T23:25:08.881Z,21.90
2018-06-12T23:27:38.339Z,24.30
2018-06-12T23:30:07.805Z,24.47
2018-06-12T23:32:37.343Z,29.00
2018-06-12T23:35:06.859Z,22.80
2018-06-12T23:37:36.403Z,25.83
2018-06-12T23:40:05.932Z,27.80
2018-06-12T23:42:35.397Z,24.60
2018-06-12T23:45:05.163Z,25.43
2018-06-12T23:47:34.882Z,34.13
2018-06-12T23:50:04.413Z,29.33
2018-06-12T23:52:33.877Z,25.03
2018-06-12T23:55:03.341Z,24.00
2018-06-12T23:57:32.816Z,28.87
